sensor_id;sensor_type;location;lat;lon;timestamp;temperature;humidity
6792;DHT22;3433;48.730;9.108;2024-01-06T00:02:47;7.00;99.90
6792;DHT22;3433;48.730;9.108;2024-01-06T00:05:38;7.00;99.90
6792;DHT22;3433;48.730;9.108;2024-01-06T00:08:25;7.00;99.90
6792;DHT22;3433;48.730;9.108;2024-01-06T00:11:12;7.00;99.90
6792;DHT22;3433;48.730;9.108;2024-01-06T00:13:59;7.10;99.90
6792;DHT22;3433;48.730;9.108;2024-01-06T00:16:47;7.10;99.90
6792;DHT22;3433;48.730;9.108;2024-01-06T00:19:34;7.10;99.90
6792;DHT22;3433;48.730;9.108;2024-01-06T00:22:23;7.10;99.90
6792;DHT22;3433;48.730;9.108;2024-01-06T00:25:10;7.10;99.90
6792;DHT22;3433;48.730;9.108;2024-01-06T00:27:57;7.10;99.90
6792;DHT22;3433;48.730;9.108;2024-01-06T00:30:45;7.10;99.90
6792;DHT22;3433;48.730;9.108;2024-01-06T00:33:32;7.10;99.90
6792;DHT22;3433;48.730;9.108;2024-01-06T00:36:20;7.20;99.90
6792;DHT22;3433;48.730;9.108;2024-01-06T00:39:08;7.20;99.90
6792;DHT22;3433;48.730;9.108;2024-01-06T00:41:56;7.20;99.90
6792;DHT22;3433;48.730;9.108;2024-01-06T00:44:43;7.20;99.90
6792;DHT22;3433;48.730;9.108;2024-01-06T00:47:31;7.20;99.90
6792;DHT22;3433;48.730;9.108;2024-01-06T00:50:18;7.20;99.90
6792;DHT22;3433;48.730;9.108;2024-01-06T00:53:06;7.30;99.90
6792;DHT22;3433;48.730;9.108;2024-01-06T00:55:54;7.20;99.90
6792;DHT22;3433;48.730;9.108;2024-01-06T00:58:42;7.20;99.90
6792;DHT22;3433;48.730;9.108;2024-01-06T01:01:29;7.30;99.90
6792;DHT22;3433;48.730;9.108;2024-01-06T01:04:16;7.30;99.90
6792;DHT22;3433;48.730;9.108;2024-01-06T01:07:03;7.20;99.90
6792;DHT22;3433;48.730;9.108;2024-01-06T01:09:51;7.20;99.90
6792;DHT22;3433;48.730;9.108;2024-01-06T01:12:39;7.20;99.90
6792;DHT22;3433;48.730;9.108;2024-01-06T01:15:27;7.30;99.90
6792;DHT22;3433;48.730;9.108;2024-01-06T01:18:14;7.20;99.90
6792;DHT22;3433;48.730;9.108;2024-01-06T01:21:02;7.20;99.90
6792;DHT22;3433;48.730;9.108;2024-01-06T01:23:49;7.20;99.90
6792;DHT22;3433;48.730;9.108;2024-01-06T01:26:36;7.20;99.90
6792;DHT22;3433;48.730;9.108;2024-01-06T01:29:25;7.20;99.90
6792;DHT22;3433;48.730;9.108;2024-01-06T01:32:12;7.20;99.90
6792;DHT22;3433;48.730;9.108;2024-01-06T01:35:00;7.20;99.90
6792;DHT22;3433;48.730;9.108;2024-01-06T01:37:48;7.20;99.90
6792;DHT22;3433;48.730;9.108;2024-01-06T01:40:35;7.20;99.90
6792;DHT22;3433;48.730;9.108;2024-01-06T01:43:22;7.10;99.90
6792;DHT22;3433;48.730;9.108;2024-01-06T01:46:11;7.10;99.90
6792;DHT22;3433;48.730;9.108;2024-01-06T01:49:00;7.10;99.90
6792;DHT22;3433;48.730;9.108;2024-01-06T01:51:48;7.10;99.90
6792;DHT22;3433;48.730;9.108;2024-01-06T01:54:35;7.10;99.90
6792;DHT22;3433;48.730;9.108;2024-01-06T01:57:24;7.10;99.90
6792;DHT22;3433;48.730;9.108;2024-01-06T02:00:13;7.10;99.90
6792;DHT22;3433;48.730;9.108;2024-01-06T02:03:03;7.10;99.90
6792;DHT22;3433;48.730;9.108;2024-01-06T02:05:51;7.10;99.90
6792;DHT22;3433;48.730;9.108;2024-01-06T02:08:38;7.10;99.90
6792;DHT22;3433;48.730;9.108;2024-01-06T02:11:26;7.10;99.90
6792;DHT22;3433;48.730;9.108;2024-01-06T02:14:13;7.10;99.90
6792;DHT22;3433;48.730;9.108;2024-01-06T02:17:00;7.10;99.90
6792;DHT22;3433;48.730;9.108;2024-01-06T02:19:49;7.10;99.90
6792;DHT22;3433;48.730;9.108;2024-01-06T02:22:38;7.00;99.90
6792;DHT22;3433;48.730;9.108;2024-01-06T02:25:25;7.00;99.90
6792;DHT22;3433;48.730;9.108;2024-01-06T02:28:12;7.10;99.90
6792;DHT22;3433;48.730;9.108;2024-01-06T02:31:00;7.10;99.90
6792;DHT22;3433;48.730;9.108;2024-01-06T02:33:47;7.10;99.90
6792;DHT22;3433;48.730;9.108;2024-01-06T02:36:34;7.10;99.90
6792;DHT22;3433;48.730;9.108;2024-01-06T02:39:23;7.20;99.90
6792;DHT22;3433;48.730;9.108;2024-01-06T02:42:10;7.20;99.90
6792;DHT22;3433;48.730;9.108;2024-01-06T02:44:58;7.20;99.90
6792;DHT22;3433;48.730;9.108;2024-01-06T02:47:45;7.10;99.90
6792;DHT22;3433;48.730;9.108;2024-01-06T02:50:32;7.20;99.90
6792;DHT22;3433;48.730;9.108;2024-01-06T02:53:19;7.20;99.90
6792;DHT22;3433;48.730;9.108;2024-01-06T02:56:11;7.20;99.90
6792;DHT22;3433;48.730;9.108;2024-01-06T02:58:58;7.20;99.90
6792;DHT22;3433;48.730;9.108;2024-01-06T03:01:48;7.20;99.90
6792;DHT22;3433;48.730;9.108;2024-01-06T03:04:35;7.20;99.90
6792;DHT22;3433;48.730;9.108;2024-01-06T03:07:22;7.20;99.90
6792;DHT22;3433;48.730;9.108;2024-01-06T03:10:10;7.30;99.90
6792;DHT22;3433;48.730;9.108;2024-01-06T03:12:59;7.20;99.90
6792;DHT22;3433;48.730;9.108;2024-01-06T03:15:46;7.30;99.90
6792;DHT22;3433;48.730;9.108;2024-01-06T03:18:33;7.20;99.90
6792;DHT22;3433;48.730;9.108;2024-01-06T03:21:20;7.30;99.90
6792;DHT22;3433;48.730;9.108;2024-01-06T03:24:08;7.20;99.90
6792;DHT22;3433;48.730;9.108;2024-01-06T03:26:56;7.20;99.90
6792;DHT22;3433;48.730;9.108;2024-01-06T03:29:44;7.20;99.90
6792;DHT22;3433;48.730;9.108;2024-01-06T03:32:32;7.20;99.90
6792;DHT22;3433;48.730;9.108;2024-01-06T03:35:19;7.20;99.90
6792;DHT22;3433;48.730;9.108;2024-01-06T03:38:06;7.20;99.90
6792;DHT22;3433;48.730;9.108;2024-01-06T03:40:54;7.20;99.90
6792;DHT22;3433;48.730;9.108;2024-01-06T03:43:41;7.10;99.90
6792;DHT22;3433;48.730;9.108;2024-01-06T03:46:30;7.10;99.90
6792;DHT22;3433;48.730;9.108;2024-01-06T03:49:17;7.20;99.90
6792;DHT22;3433;48.730;9.108;2024-01-06T03:52:06;7.20;99.90
6792;DHT22;3433;48.730;9.108;2024-01-06T03:54:53;7.20;99.90
6792;DHT22;3433;48.730;9.108;2024-01-06T03:57:40;7.20;99.90
6792;DHT22;3433;48.730;9.108;2024-01-06T04:00:27;7.10;99.90
6792;DHT22;3433;48.730;9.108;2024-01-06T04:03:16;7.10;99.90
6792;DHT22;3433;48.730;9.108;2024-01-06T04:06:03;7.10;99.90
6792;DHT22;3433;48.730;9.108;2024-01-06T04:08:51;7.10;99.90
6792;DHT22;3433;48.730;9.108;2024-01-06T04:11:39;7.10;99.90
6792;DHT22;3433;48.730;9.108;2024-01-06T04:14:26;7.10;99.90
6792;DHT22;3433;48.730;9.108;2024-01-06T04:17:13;7.10;99.90
6792;DHT22;3433;48.730;9.108;2024-01-06T04:20:01;7.10;99.90
6792;DHT22;3433;48.730;9.108;2024-01-06T04:22:49;7.10;99.90
6792;DHT22;3433;48.730;9.108;2024-01-06T04:25:37;7.00;99.90
6792;DHT22;3433;48.730;9.108;2024-01-06T04:28:24;7.00;99.90
6792;DHT22;3433;48.730;9.108;2024-01-06T04:31:11;7.00;99.90
6792;DHT22;3433;48.730;9.108;2024-01-06T04:33:58;7.00;99.90
6792;DHT22;3433;48.730;9.108;2024-01-06T04:36:46;7.00;99.90
6792;DHT22;3433;48.730;9.108;2024-01-06T04:39:34;7.00;99.90
6792;DHT22;3433;48.730;9.108;2024-01-06T04:42:21;7.00;99.90
6792;DHT22;3433;48.730;9.108;2024-01-06T04:45:09;7.00;99.90
6792;DHT22;3433;48.730;9.108;2024-01-06T04:47:56;7.00;99.90
6792;DHT22;3433;48.730;9.108;2024-01-06T04:50:43;7.00;99.90
6792;DHT22;3433;48.730;9.108;2024-01-06T04:53:32;6.90;99.90
6792;DHT22;3433;48.730;9.108;2024-01-06T04:56:19;6.90;99.90
6792;DHT22;3433;48.730;9.108;2024-01-06T04:59:06;6.90;99.90
6792;DHT22;3433;48.730;9.108;2024-01-06T05:01:54;7.00;99.90
6792;DHT22;3433;48.730;9.108;2024-01-06T05:04:41;7.00;99.90
6792;DHT22;3433;48.730;9.108;2024-01-06T05:07:28;7.00;99.90
6792;DHT22;3433;48.730;9.108;2024-01-06T05:10:17;6.90;99.90
6792;DHT22;3433;48.730;9.108;2024-01-06T05:13:04;6.90;99.90
6792;DHT22;3433;48.730;9.108;2024-01-06T05:15:51;7.00;99.90
6792;DHT22;3433;48.730;9.108;2024-01-06T05:18:39;7.00;99.90
6792;DHT22;3433;48.730;9.108;2024-01-06T05:21:26;7.00;99.90
6792;DHT22;3433;48.730;9.108;2024-01-06T05:24:13;7.10;99.90
6792;DHT22;3433;48.730;9.108;2024-01-06T05:27:02;7.10;99.90
6792;DHT22;3433;48.730;9.108;2024-01-06T05:29:49;7.10;99.90
6792;DHT22;3433;48.730;9.108;2024-01-06T05:32:37;7.00;99.90
6792;DHT22;3433;48.730;9.108;2024-01-06T05:35:24;7.10;99.90
6792;DHT22;3433;48.730;9.108;2024-01-06T05:38:12;7.00;99.90
6792;DHT22;3433;48.730;9.108;2024-01-06T05:40:59;7.00;99.90
6792;DHT22;3433;48.730;9.108;2024-01-06T05:43:47;7.00;99.90
6792;DHT22;3433;48.730;9.108;2024-01-06T05:46:35;7.00;99.90
6792;DHT22;3433;48.730;9.108;2024-01-06T05:49:22;7.00;99.90
6792;DHT22;3433;48.730;9.108;2024-01-06T05:52:10;7.00;99.90
6792;DHT22;3433;48.730;9.108;2024-01-06T05:54:57;7.00;99.90
6792;DHT22;3433;48.730;9.108;2024-01-06T05:57:45;7.00;99.90
6792;DHT22;3433;48.730;9.108;2024-01-06T06:00:33;7.00;99.90
6792;DHT22;3433;48.730;9.108;2024-01-06T06:03:20;7.00;99.90
6792;DHT22;3433;48.730;9.108;2024-01-06T06:06:08;7.00;99.90
6792;DHT22;3433;48.730;9.108;2024-01-06T06:08:55;7.00;99.90
6792;DHT22;3433;48.730;9.108;2024-01-06T06:11:42;7.00;99.90
6792;DHT22;3433;48.730;9.108;2024-01-06T06:14:29;7.10;99.90
6792;DHT22;3433;48.730;9.108;2024-01-06T06:17:18;7.00;99.90
6792;DHT22;3433;48.730;9.108;2024-01-06T06:20:06;7.00;99.90
6792;DHT22;3433;48.730;9.108;2024-01-06T06:22:53;7.00;99.90
6792;DHT22;3433;48.730;9.108;2024-01-06T06:25:40;7.10;99.90
6792;DHT22;3433;48.730;9.108;2024-01-06T06:28:27;7.10;99.90
6792;DHT22;3433;48.730;9.108;2024-01-06T06:31:15;7.10;99.90
6792;DHT22;3433;48.730;9.108;2024-01-06T06:34:03;7.10;99.90
6792;DHT22;3433;48.730;9.108;2024-01-06T06:36:50;7.10;99.90
6792;DHT22;3433;48.730;9.108;2024-01-06T06:39:37;7.10;99.90
6792;DHT22;3433;48.730;9.108;2024-01-06T06:42:25;7.10;99.90
6792;DHT22;3433;48.730;9.108;2024-01-06T06:45:12;7.10;99.90
6792;DHT22;3433;48.730;9.108;2024-01-06T06:47:59;7.10;99.90
6792;DHT22;3433;48.730;9.108;2024-01-06T06:50:48;7.10;99.90
6792;DHT22;3433;48.730;9.108;2024-01-06T06:53:35;7.10;99.90
6792;DHT22;3433;48.730;9.108;2024-01-06T06:56:22;7.10;99.90
6792;DHT22;3433;48.730;9.108;2024-01-06T06:59:09;7.10;99.90
6792;DHT22;3433;48.730;9.108;2024-01-06T07:01:57;7.10;99.90
6792;DHT22;3433;48.730;9.108;2024-01-06T07:04:44;7.20;99.90
6792;DHT22;3433;48.730;9.108;2024-01-06T07:07:32;7.20;99.90
6792;DHT22;3433;48.730;9.108;2024-01-06T07:10:20;7.10;99.90
6792;DHT22;3433;48.730;9.108;2024-01-06T07:13:07;7.20;99.90
6792;DHT22;3433;48.730;9.108;2024-01-06T07:15:54;7.20;99.90
6792;DHT22;3433;48.730;9.108;2024-01-06T07:18:41;7.20;99.90
6792;DHT22;3433;48.730;9.108;2024-01-06T07:21:28;7.20;99.90
6792;DHT22;3433;48.730;9.108;2024-01-06T07:24:17;7.20;99.90
6792;DHT22;3433;48.730;9.108;2024-01-06T07:27:04;7.10;99.90
6792;DHT22;3433;48.730;9.108;2024-01-06T07:29:51;7.10;99.90
6792;DHT22;3433;48.730;9.108;2024-01-06T07:32:39;7.10;99.90
6792;DHT22;3433;48.730;9.108;2024-01-06T07:35:26;7.10;99.90
6792;DHT22;3433;48.730;9.108;2024-01-06T07:38:14;7.10;99.90
6792;DHT22;3433;48.730;9.108;2024-01-06T07:41:03;7.00;99.90
6792;DHT22;3433;48.730;9.108;2024-01-06T07:43:50;6.90;99.90
6792;DHT22;3433;48.730;9.108;2024-01-06T07:46:38;6.90;99.90
6792;DHT22;3433;48.730;9.108;2024-01-06T07:49:26;6.90;99.90
6792;DHT22;3433;48.730;9.108;2024-01-06T07:52:13;6.90;99.90
6792;DHT22;3433;48.730;9.108;2024-01-06T07:55:00;7.00;99.90
6792;DHT22;3433;48.730;9.108;2024-01-06T07:57:49;7.10;99.90
6792;DHT22;3433;48.730;9.108;2024-01-06T08:00:36;6.90;99.90
6792;DHT22;3433;48.730;9.108;2024-01-06T08:03:23;7.00;99.90
6792;DHT22;3433;48.730;9.108;2024-01-06T08:06:10;7.00;99.90
6792;DHT22;3433;48.730;9.108;2024-01-06T08:08:58;7.10;99.90
6792;DHT22;3433;48.730;9.108;2024-01-06T08:11:45;7.10;99.90
6792;DHT22;3433;48.730;9.108;2024-01-06T08:14:35;7.10;99.90
6792;DHT22;3433;48.730;9.108;2024-01-06T08:17:22;7.20;99.90
6792;DHT22;3433;48.730;9.108;2024-01-06T08:20:10;7.20;99.90
6792;DHT22;3433;48.730;9.108;2024-01-06T08:22:57;7.20;99.90
6792;DHT22;3433;48.730;9.108;2024-01-06T08:25:44;7.20;99.90
6792;DHT22;3433;48.730;9.108;2024-01-06T08:28:32;7.30;99.90
6792;DHT22;3433;48.730;9.108;2024-01-06T08:31:21;7.30;99.90
6792;DHT22;3433;48.730;9.108;2024-01-06T08:34:08;7.30;99.90
6792;DHT22;3433;48.730;9.108;2024-01-06T08:36:56;7.40;99.90
6792;DHT22;3433;48.730;9.108;2024-01-06T08:39:43;7.40;99.90
6792;DHT22;3433;48.730;9.108;2024-01-06T08:42:30;7.40;99.90
6792;DHT22;3433;48.730;9.108;2024-01-06T08:45:17;7.40;99.90
6792;DHT22;3433;48.730;9.108;2024-01-06T08:48:06;7.40;99.90
6792;DHT22;3433;48.730;9.108;2024-01-06T08:50:53;7.50;99.90
6792;DHT22;3433;48.730;9.108;2024-01-06T08:53:41;7.50;99.90
6792;DHT22;3433;48.730;9.108;2024-01-06T08:56:28;7.40;99.90
6792;DHT22;3433;48.730;9.108;2024-01-06T08:59:15;7.50;99.90
6792;DHT22;3433;48.730;9.108;2024-01-06T09:02:02;7.50;99.90
6792;DHT22;3433;48.730;9.108;2024-01-06T09:04:51;7.60;99.90
6792;DHT22;3433;48.730;9.108;2024-01-06T09:07:38;7.60;99.90
6792;DHT22;3433;48.730;9.108;2024-01-06T09:10:26;7.60;99.90
6792;DHT22;3433;48.730;9.108;2024-01-06T09:13:14;7.60;99.90
6792;DHT22;3433;48.730;9.108;2024-01-06T09:16:02;7.50;99.90
6792;DHT22;3433;48.730;9.108;2024-01-06T09:18:49;7.60;99.90
6792;DHT22;3433;48.730;9.108;2024-01-06T09:21:38;7.70;99.90
6792;DHT22;3433;48.730;9.108;2024-01-06T09:24:25;7.60;99.90
6792;DHT22;3433;48.730;9.108;2024-01-06T09:27:12;7.40;99.90
6792;DHT22;3433;48.730;9.108;2024-01-06T09:30:00;7.50;99.90
6792;DHT22;3433;48.730;9.108;2024-01-06T09:32:47;7.60;99.90
6792;DHT22;3433;48.730;9.108;2024-01-06T09:35:35;7.70;99.90
6792;DHT22;3433;48.730;9.108;2024-01-06T09:38:24;7.70;99.90
6792;DHT22;3433;48.730;9.108;2024-01-06T09:41:11;7.60;99.90
6792;DHT22;3433;48.730;9.108;2024-01-06T09:43:59;7.50;99.90
6792;DHT22;3433;48.730;9.108;2024-01-06T09:46:47;7.50;99.90
6792;DHT22;3433;48.730;9.108;2024-01-06T09:49:38;7.60;99.90
6792;DHT22;3433;48.730;9.108;2024-01-06T09:52:27;7.70;99.90
6792;DHT22;3433;48.730;9.108;2024-01-06T09:55:17;7.80;99.90
6792;DHT22;3433;48.730;9.108;2024-01-06T09:58:05;7.80;99.90
6792;DHT22;3433;48.730;9.108;2024-01-06T10:00:53;7.90;99.90
6792;DHT22;3433;48.730;9.108;2024-01-06T10:03:40;7.90;99.90
6792;DHT22;3433;48.730;9.108;2024-01-06T10:06:27;8.00;99.90
6792;DHT22;3433;48.730;9.108;2024-01-06T10:09:14;8.00;99.90
6792;DHT22;3433;48.730;9.108;2024-01-06T10:12:03;7.90;99.90
6792;DHT22;3433;48.730;9.108;2024-01-06T10:14:51;7.90;99.90
6792;DHT22;3433;48.730;9.108;2024-01-06T10:17:38;8.00;99.90
6792;DHT22;3433;48.730;9.108;2024-01-06T10:20:26;8.00;99.90
6792;DHT22;3433;48.730;9.108;2024-01-06T10:23:13;8.00;99.90
6792;DHT22;3433;48.730;9.108;2024-01-06T10:26:01;8.00;99.90
6792;DHT22;3433;48.730;9.108;2024-01-06T10:28:50;8.00;99.90
6792;DHT22;3433;48.730;9.108;2024-01-06T10:31:37;8.10;99.90
6792;DHT22;3433;48.730;9.108;2024-01-06T10:34:24;8.10;99.90
6792;DHT22;3433;48.730;9.108;2024-01-06T10:37:12;8.10;99.90
6792;DHT22;3433;48.730;9.108;2024-01-06T10:40:10;8.30;99.90
6792;DHT22;3433;48.730;9.108;2024-01-06T10:42:57;8.50;99.90
6792;DHT22;3433;48.730;9.108;2024-01-06T10:45:47;8.50;99.90
6792;DHT22;3433;48.730;9.108;2024-01-06T10:48:35;8.40;99.90
6792;DHT22;3433;48.730;9.108;2024-01-06T10:51:25;8.40;99.90
6792;DHT22;3433;48.730;9.108;2024-01-06T10:54:15;8.40;99.90
6792;DHT22;3433;48.730;9.108;2024-01-06T10:57:05;8.40;99.90
6792;DHT22;3433;48.730;9.108;2024-01-06T10:59:53;8.30;99.90
6792;DHT22;3433;48.730;9.108;2024-01-06T11:02:42;8.20;99.90
6792;DHT22;3433;48.730;9.108;2024-01-06T11:05:09;8.20;99.90
6792;DHT22;3433;48.730;9.108;2024-01-06T11:07:38;8.20;99.90
6792;DHT22;3433;48.730;9.108;2024-01-06T11:10:17;8.30;99.90
6792;DHT22;3433;48.730;9.108;2024-01-06T11:12:46;8.20;99.90
6792;DHT22;3433;48.730;9.108;2024-01-06T11:15:42;8.20;99.90
6792;DHT22;3433;48.730;9.108;2024-01-06T11:18:30;8.20;99.90
6792;DHT22;3433;48.730;9.108;2024-01-06T11:21:20;8.10;99.90
6792;DHT22;3433;48.730;9.108;2024-01-06T11:26:55;8.20;99.90
6792;DHT22;3433;48.730;9.108;2024-01-06T11:29:23;8.20;99.90
6792;DHT22;3433;48.730;9.108;2024-01-06T11:32:24;8.20;99.90
6792;DHT22;3433;48.730;9.108;2024-01-06T11:34:54;8.20;99.90
6792;DHT22;3433;48.730;9.108;2024-01-06T11:37:25;8.20;99.90
6792;DHT22;3433;48.730;9.108;2024-01-06T11:39:52;8.30;99.90
6792;DHT22;3433;48.730;9.108;2024-01-06T11:42:19;8.20;99.90
6792;DHT22;3433;48.730;9.108;2024-01-06T11:44:50;8.20;99.90
6792;DHT22;3433;48.730;9.108;2024-01-06T11:47:18;8.30;99.90
6792;DHT22;3433;48.730;9.108;2024-01-06T11:49:54;8.30;99.90
6792;DHT22;3433;48.730;9.108;2024-01-06T11:52:21;8.30;99.90
6792;DHT22;3433;48.730;9.108;2024-01-06T11:54:49;8.30;99.90
6792;DHT22;3433;48.730;9.108;2024-01-06T11:57:16;8.30;99.90
6792;DHT22;3433;48.730;9.108;2024-01-06T11:59:43;8.30;99.90
6792;DHT22;3433;48.730;9.108;2024-01-06T12:02:11;8.30;99.90
6792;DHT22;3433;48.730;9.108;2024-01-06T12:04:38;8.30;99.90
6792;DHT22;3433;48.730;9.108;2024-01-06T12:07:08;8.30;99.90
6792;DHT22;3433;48.730;9.108;2024-01-06T12:09:35;8.30;99.90
6792;DHT22;3433;48.730;9.108;2024-01-06T12:12:03;8.20;99.90
6792;DHT22;3433;48.730;9.108;2024-01-06T12:14:31;8.30;99.90
6792;DHT22;3433;48.730;9.108;2024-01-06T12:16:58;8.30;99.90
6792;DHT22;3433;48.730;9.108;2024-01-06T12:19:29;8.40;99.90
6792;DHT22;3433;48.730;9.108;2024-01-06T12:22:14;8.30;99.90
6792;DHT22;3433;48.730;9.108;2024-01-06T12:24:41;8.30;99.90
6792;DHT22;3433;48.730;9.108;2024-01-06T12:27:09;8.40;99.90
6792;DHT22;3433;48.730;9.108;2024-01-06T12:29:40;8.30;99.90
6792;DHT22;3433;48.730;9.108;2024-01-06T12:32:07;8.30;99.90
6792;DHT22;3433;48.730;9.108;2024-01-06T12:34:35;8.20;99.90
6792;DHT22;3433;48.730;9.108;2024-01-06T12:37:02;8.30;99.90
6792;DHT22;3433;48.730;9.108;2024-01-06T12:39:31;8.30;99.90
6792;DHT22;3433;48.730;9.108;2024-01-06T12:41:58;8.30;99.90
6792;DHT22;3433;48.730;9.108;2024-01-06T12:44:28;8.20;99.90
6792;DHT22;3433;48.730;9.108;2024-01-06T12:46:55;8.20;99.90
6792;DHT22;3433;48.730;9.108;2024-01-06T12:49:22;8.20;99.90
6792;DHT22;3433;48.730;9.108;2024-01-06T12:51:48;8.30;99.90
6792;DHT22;3433;48.730;9.108;2024-01-06T12:54:15;8.30;99.90
6792;DHT22;3433;48.730;9.108;2024-01-06T12:56:44;8.30;99.90
6792;DHT22;3433;48.730;9.108;2024-01-06T12:59:11;8.30;99.90
6792;DHT22;3433;48.730;9.108;2024-01-06T13:01:38;8.20;99.90
6792;DHT22;3433;48.730;9.108;2024-01-06T13:04:05;8.10;99.90
6792;DHT22;3433;48.730;9.108;2024-01-06T13:06:32;8.10;99.90
6792;DHT22;3433;48.730;9.108;2024-01-06T13:09:00;8.10;99.90
6792;DHT22;3433;48.730;9.108;2024-01-06T13:11:32;8.00;99.90
6792;DHT22;3433;48.730;9.108;2024-01-06T13:14:01;7.90;99.90
6792;DHT22;3433;48.730;9.108;2024-01-06T13:16:28;7.90;99.90
6792;DHT22;3433;48.730;9.108;2024-01-06T13:18:54;8.00;99.90
6792;DHT22;3433;48.730;9.108;2024-01-06T13:21:21;8.00;99.90
6792;DHT22;3433;48.730;9.108;2024-01-06T13:23:49;7.90;99.90
6792;DHT22;3433;48.730;9.108;2024-01-06T13:26:16;7.90;99.90
6792;DHT22;3433;48.730;9.108;2024-01-06T13:28:43;8.00;99.90
6792;DHT22;3433;48.730;9.108;2024-01-06T13:31:13;7.90;99.90
6792;DHT22;3433;48.730;9.108;2024-01-06T13:33:40;7.90;99.90
6792;DHT22;3433;48.730;9.108;2024-01-06T13:36:08;7.90;99.90
6792;DHT22;3433;48.730;9.108;2024-01-06T13:38:34;7.90;99.90
6792;DHT22;3433;48.730;9.108;2024-01-06T13:41:01;7.80;99.90
6792;DHT22;3433;48.730;9.108;2024-01-06T13:43:29;7.80;99.90
6792;DHT22;3433;48.730;9.108;2024-01-06T13:45:57;7.80;99.90
6792;DHT22;3433;48.730;9.108;2024-01-06T13:48:26;7.70;99.90
6792;DHT22;3433;48.730;9.108;2024-01-06T13:50:53;7.80;99.90
6792;DHT22;3433;48.730;9.108;2024-01-06T13:53:20;7.80;99.90
6792;DHT22;3433;48.730;9.108;2024-01-06T13:55:47;7.80;99.90
6792;DHT22;3433;48.730;9.108;2024-01-06T13:58:14;7.70;99.90
6792;DHT22;3433;48.730;9.108;2024-01-06T14:00:42;7.60;99.90
6792;DHT22;3433;48.730;9.108;2024-01-06T14:03:09;7.50;99.90
6792;DHT22;3433;48.730;9.108;2024-01-06T14:05:37;7.60;99.90
6792;DHT22;3433;48.730;9.108;2024-01-06T14:08:06;7.60;99.90
6792;DHT22;3433;48.730;9.108;2024-01-06T14:10:33;7.60;99.90
6792;DHT22;3433;48.730;9.108;2024-01-06T14:13:00;7.60;99.90
6792;DHT22;3433;48.730;9.108;2024-01-06T14:15:27;7.70;99.90
6792;DHT22;3433;48.730;9.108;2024-01-06T14:17:56;7.70;99.90
6792;DHT22;3433;48.730;9.108;2024-01-06T14:20:24;7.70;99.90
6792;DHT22;3433;48.730;9.108;2024-01-06T14:22:53;7.50;99.90
6792;DHT22;3433;48.730;9.108;2024-01-06T14:25:19;7.50;99.90
6792;DHT22;3433;48.730;9.108;2024-01-06T14:27:46;7.50;99.90
6792;DHT22;3433;48.730;9.108;2024-01-06T14:30:14;7.50;99.90
6792;DHT22;3433;48.730;9.108;2024-01-06T14:32:40;7.50;99.90
6792;DHT22;3433;48.730;9.108;2024-01-06T14:35:07;7.80;99.90
6792;DHT22;3433;48.730;9.108;2024-01-06T14:37:37;7.80;99.90
6792;DHT22;3433;48.730;9.108;2024-01-06T14:40:06;7.80;99.90
6792;DHT22;3433;48.730;9.108;2024-01-06T14:42:34;7.70;99.90
6792;DHT22;3433;48.730;9.108;2024-01-06T14:45:02;7.70;99.90
6792;DHT22;3433;48.730;9.108;2024-01-06T14:47:29;7.70;99.90
6792;DHT22;3433;48.730;9.108;2024-01-06T14:49:57;7.70;99.90
6792;DHT22;3433;48.730;9.108;2024-01-06T14:52:24;7.60;99.90
6792;DHT22;3433;48.730;9.108;2024-01-06T14:54:51;7.60;99.90
6792;DHT22;3433;48.730;9.108;2024-01-06T14:57:19;7.50;99.90
6792;DHT22;3433;48.730;9.108;2024-01-06T14:59:46;7.50;99.90
6792;DHT22;3433;48.730;9.108;2024-01-06T15:02:13;7.60;99.90
6792;DHT22;3433;48.730;9.108;2024-01-06T15:04:40;7.60;99.90
6792;DHT22;3433;48.730;9.108;2024-01-06T15:07:07;7.60;99.90
6792;DHT22;3433;48.730;9.108;2024-01-06T15:09:37;7.60;99.90
6792;DHT22;3433;48.730;9.108;2024-01-06T15:12:05;7.70;99.90
6792;DHT22;3433;48.730;9.108;2024-01-06T15:14:34;7.60;99.90
6792;DHT22;3433;48.730;9.108;2024-01-06T15:17:01;7.60;99.90
6792;DHT22;3433;48.730;9.108;2024-01-06T15:19:27;7.60;99.90
6792;DHT22;3433;48.730;9.108;2024-01-06T15:21:56;7.60;99.90
6792;DHT22;3433;48.730;9.108;2024-01-06T15:24:23;7.60;99.90
6792;DHT22;3433;48.730;9.108;2024-01-06T15:26:50;7.50;99.90
6792;DHT22;3433;48.730;9.108;2024-01-06T15:29:18;7.60;99.90
6792;DHT22;3433;48.730;9.108;2024-01-06T15:31:46;7.50;99.90
6792;DHT22;3433;48.730;9.108;2024-01-06T15:34:13;7.50;99.90
6792;DHT22;3433;48.730;9.108;2024-01-06T15:36:40;7.50;99.90
6792;DHT22;3433;48.730;9.108;2024-01-06T15:39:07;7.50;99.90
6792;DHT22;3433;48.730;9.108;2024-01-06T15:41:33;7.50;99.90
6792;DHT22;3433;48.730;9.108;2024-01-06T15:44:00;7.50;99.90
6792;DHT22;3433;48.730;9.108;2024-01-06T15:46:27;7.50;99.90
6792;DHT22;3433;48.730;9.108;2024-01-06T15:48:56;7.50;99.90
6792;DHT22;3433;48.730;9.108;2024-01-06T15:51:22;7.50;99.90
6792;DHT22;3433;48.730;9.108;2024-01-06T15:53:49;7.50;99.90
6792;DHT22;3433;48.730;9.108;2024-01-06T15:56:16;7.50;99.90
6792;DHT22;3433;48.730;9.108;2024-01-06T15:58:43;7.50;99.90
6792;DHT22;3433;48.730;9.108;2024-01-06T16:01:10;7.50;99.90
6792;DHT22;3433;48.730;9.108;2024-01-06T16:03:38;7.50;99.90
6792;DHT22;3433;48.730;9.108;2024-01-06T16:06:07;7.50;99.90
6792;DHT22;3433;48.730;9.108;2024-01-06T16:08:34;7.50;99.90
6792;DHT22;3433;48.730;9.108;2024-01-06T16:11:01;7.50;99.90
6792;DHT22;3433;48.730;9.108;2024-01-06T16:13:28;7.40;99.90
6792;DHT22;3433;48.730;9.108;2024-01-06T16:15:55;7.50;99.90
6792;DHT22;3433;48.730;9.108;2024-01-06T16:18:22;7.50;99.90
6792;DHT22;3433;48.730;9.108;2024-01-06T16:20:49;7.50;99.90
6792;DHT22;3433;48.730;9.108;2024-01-06T16:23:17;7.40;99.90
6792;DHT22;3433;48.730;9.108;2024-01-06T16:25:44;7.40;99.90
6792;DHT22;3433;48.730;9.108;2024-01-06T16:28:11;7.40;99.90
6792;DHT22;3433;48.730;9.108;2024-01-06T16:30:38;7.40;99.90
6792;DHT22;3433;48.730;9.108;2024-01-06T16:33:05;7.40;99.90
6792;DHT22;3433;48.730;9.108;2024-01-06T16:35:33;7.40;99.90
6792;DHT22;3433;48.730;9.108;2024-01-06T16:38:00;7.40;99.90
6792;DHT22;3433;48.730;9.108;2024-01-06T16:40:28;7.40;99.90
6792;DHT22;3433;48.730;9.108;2024-01-06T16:42:56;7.40;99.90
6792;DHT22;3433;48.730;9.108;2024-01-06T16:45:23;7.40;99.90
6792;DHT22;3433;48.730;9.108;2024-01-06T16:47:50;7.20;99.90
6792;DHT22;3433;48.730;9.108;2024-01-06T16:50:17;7.20;99.90
6792;DHT22;3433;48.730;9.108;2024-01-06T16:52:44;7.20;99.90
6792;DHT22;3433;48.730;9.108;2024-01-06T16:55:11;7.30;99.90
6792;DHT22;3433;48.730;9.108;2024-01-06T16:57:39;7.30;99.90
6792;DHT22;3433;48.730;9.108;2024-01-06T17:00:07;7.30;99.90
6792;DHT22;3433;48.730;9.108;2024-01-06T17:02:38;7.30;99.90
6792;DHT22;3433;48.730;9.108;2024-01-06T17:05:05;7.20;99.90
6792;DHT22;3433;48.730;9.108;2024-01-06T17:07:36;7.30;99.90
6792;DHT22;3433;48.730;9.108;2024-01-06T17:10:07;7.30;99.90
6792;DHT22;3433;48.730;9.108;2024-01-06T17:12:36;7.20;99.90
6792;DHT22;3433;48.730;9.108;2024-01-06T17:15:05;7.20;99.90
6792;DHT22;3433;48.730;9.108;2024-01-06T17:17:32;7.20;99.90
6792;DHT22;3433;48.730;9.108;2024-01-06T17:19:58;7.20;99.90
6792;DHT22;3433;48.730;9.108;2024-01-06T17:22:25;7.20;99.90
6792;DHT22;3433;48.730;9.108;2024-01-06T17:24:52;7.10;99.90
6792;DHT22;3433;48.730;9.108;2024-01-06T17:27:19;7.10;99.90
6792;DHT22;3433;48.730;9.108;2024-01-06T17:29:46;7.10;99.90
6792;DHT22;3433;48.730;9.108;2024-01-06T17:32:14;7.10;99.90
6792;DHT22;3433;48.730;9.108;2024-01-06T17:34:41;7.20;99.90
6792;DHT22;3433;48.730;9.108;2024-01-06T17:37:08;7.20;99.90
6792;DHT22;3433;48.730;9.108;2024-01-06T17:39:35;7.20;99.90
6792;DHT22;3433;48.730;9.108;2024-01-06T17:42:02;7.30;99.90
6792;DHT22;3433;48.730;9.108;2024-01-06T17:44:31;7.10;99.90